Terminal Aerodrome Forecast
Issued by NWS

Home | Current Version | Previous Version | Text Only | Print | Product List | Glossary On
Versions: 1 2 3 4 5 6 7 8 9 10 11 12 13 14 15 16 17 18 19 20 21 22 23 24 25
000
FTUS43 KPAH 271100
TAFOWB
TAF
KOWB 271122Z 2712/2812 17006KT 5SM -SHRA BR BKN015 OVC030
     FM271400 18006KT 4SM BR OVC012
     FM271900 21007KT 3SM -SHRA BR OVC007
     FM280200 32007KT 4SM -RADZ BR OVC009
     FM280800 34008KT 3SM -RADZ BR OVC008=

USA.gov is the U.S. government's official web portal to all federal, state and local government web resources and services.